Time;durP1;ratioP1;P1;durP2;ratioP2;P2;SDS_P1;SDS_P2;PMS_P1;PMS_P2;Temp;Humidity;BMP_temperature;BMP_pressure;BME280_temperature;BME280_humidity;BME280_pressure;Samples;Min_cycle;Max_cycle;Signal;HPM_P1;HPM_P2
2021/07/21 00:00:38;;;;;;;6.45;3.42;;;;;;;25.49;41.17;97350.69;4974365;28;20101;-57
2021/07/21 00:03:04;;;;;;;6.03;3.57;;;;;;;25.50;41.40;97343.28;4975190;28;20537;-57
2021/07/21 00:05:30;;;;;;;4.93;3.40;;;;;;;25.52;40.99;97344.75;4975828;28;20278;-57
2021/07/21 00:07:56;;;;;;;7.70;3.45;;;;;;;25.44;41.17;97341.38;4972326;28;20039;-58
2021/07/21 00:10:23;;;;;;;6.82;3.55;;;;;;;25.34;41.72;97344.63;4975130;28;20034;-58
2021/07/21 00:15:36;;;;;;;5.82;3.30;;;;;;;25.31;42.54;97348.63;4975894;28;20089;-58
2021/07/21 00:18:15;;;;;;;6.20;3.40;;;;;;;25.29;43.11;97344.38;4976454;28;20475;-58
2021/07/21 00:20:40;;;;;;;6.97;3.50;;;;;;;25.21;44.23;97346.34;4976405;28;20035;-57
2021/07/21 00:23:06;;;;;;;5.45;3.55;;;;;;;25.10;44.34;97337.91;4975061;28;20113;-58
2021/07/21 00:25:31;;;;;;;7.05;3.70;;;;;;;25.27;43.99;97336.34;4976237;28;20122;-58
2021/07/21 00:27:57;;;;;;;6.10;3.40;;;;;;;25.39;43.79;97325.53;4974928;28;20051;-58
2021/07/21 00:30:22;;;;;;;6.78;4.28;;;;;;;25.41;45.81;97334.41;4975159;28;20022;-57
2021/07/21 00:32:48;;;;;;;7.07;4.30;;;;;;;25.47;45.91;97338.19;4975807;28;20027;-57
2021/07/21 00:35:17;;;;;;;8.15;4.47;;;;;;;25.46;46.07;97331.84;4976356;28;20031;-58
2021/07/21 00:37:43;;;;;;;6.60;4.18;;;;;;;25.48;46.12;97331.63;4976312;28;20023;-58
2021/07/21 00:40:10;;;;;;;7.95;4.30;;;;;;;25.50;46.30;97337.78;4972394;28;20033;-56
2021/07/21 00:42:35;;;;;;;8.45;4.85;;;;;;;25.46;48.16;97331.84;4976156;28;20101;-56
2021/07/21 00:45:01;;;;;;;11.98;4.47;;;;;;;25.21;46.82;97329.81;4975973;28;20471;-56
2021/07/21 00:47:26;;;;;;;5.38;3.90;;;;;;;25.39;45.62;97326.38;4974729;28;20031;-58
2021/07/21 00:49:51;;;;;;;8.00;4.13;;;;;;;25.39;45.91;97334.63;4973975;28;20499;-57
2021/07/21 00:52:17;;;;;;;8.25;4.43;;;;;;;25.43;45.94;97318.53;4974560;28;20475;-57
2021/07/21 00:54:45;;;;;;;7.05;4.57;;;;;;;25.45;46.54;97326.56;4974237;28;20084;-58
2021/07/21 00:57:11;;;;;;;10.52;4.68;;;;;;;25.39;46.15;97329.13;4958394;28;20391;-58
2021/07/21 00:59:36;;;;;;;10.55;4.90;;;;;;;25.08;47.37;97335.38;4974507;28;20078;-58
2021/07/21 01:02:02;;;;;;;9.75;4.75;;;;;;;25.02;47.51;97336.22;4974475;28;20489;-57
2021/07/21 01:04:31;;;;;;;10.85;4.28;;;;;;;25.06;47.11;97337.47;4974344;28;20038;-57
2021/07/21 01:06:57;;;;;;;9.77;4.40;;;;;;;25.08;47.29;97329.88;4976094;28;20031;-57
2021/07/21 01:09:23;;;;;;;8.73;4.93;;;;;;;24.95;48.03;97324.38;4975128;28;20049;-57
2021/07/21 01:12:03;;;;;;;8.10;4.50;;;;;;;24.95;48.23;97329.88;4973719;28;20376;-56
2021/07/21 01:14:46;;;;;;;9.13;4.78;;;;;;;24.90;48.62;97328.63;4975064;28;20482;-58
2021/07/21 01:17:16;;;;;;;8.45;4.90;;;;;;;24.92;48.64;97327.56;4974193;28;20034;-58
2021/07/21 01:20:06;;;;;;;8.65;4.57;;;;;;;25.00;48.71;97327.31;4974418;28;20076;-58
2021/07/21 01:22:35;;;;;;;7.90;4.60;;;;;;;25.07;48.49;97329.00;4974022;28;20029;-57
2021/07/21 01:25:06;;;;;;;10.13;4.75;;;;;;;25.04;48.65;97326.69;4974862;28;20133;-58
2021/07/21 01:27:40;;;;;;;7.53;4.65;;;;;;;24.93;48.65;97324.59;4975032;28;20093;-57
2021/07/21 01:30:26;;;;;;;7.25;4.60;;;;;;;24.83;49.45;97326.97;4973726;28;20399;-57
2021/07/21 01:32:56;;;;;;;8.55;4.45;;;;;;;24.70;50.39;97325.91;4961308;28;20031;-57
2021/07/21 01:35:24;;;;;;;9.18;4.38;;;;;;;24.63;50.45;97324.25;4973910;28;20372;-57
2021/07/21 01:38:19;;;;;;;7.15;4.70;;;;;;;24.50;49.60;97328.66;4975187;28;20041;-57
2021/07/21 01:40:47;;;;;;;9.07;5.03;;;;;;;24.62;49.24;97331.66;4961800;28;20042;-57
2021/07/21 01:43:19;;;;;;;10.70;4.70;;;;;;;24.62;49.54;97339.03;4970828;28;20030;-58
2021/07/21 01:45:51;;;;;;;7.93;4.88;;;;;;;24.66;48.76;97343.06;4975027;28;20497;-58
2021/07/21 01:48:18;;;;;;;7.60;4.63;;;;;;;24.65;48.75;97335.88;4974755;28;20081;-58
2021/07/21 01:50:45;;;;;;;8.23;4.50;;;;;;;24.45;49.35;97336.69;4973654;28;20034;-58
2021/07/21 01:53:11;;;;;;;7.38;4.22;;;;;;;24.54;48.11;97335.44;4973715;28;20058;-57
2021/07/21 01:55:38;;;;;;;7.82;4.13;;;;;;;24.58;47.84;97338.59;4973601;28;20030;-57
2021/07/21 01:58:05;;;;;;;8.43;4.10;;;;;;;24.24;48.14;97344.13;4957071;28;20034;-58
2021/07/21 02:00:30;;;;;;;7.05;3.90;;;;;;;23.98;48.68;97344.09;4973377;28;20038;-58
2021/07/21 02:02:56;;;;;;;7.75;4.00;;;;;;;23.90;48.82;97347.88;4957663;28;20363;-58
2021/07/21 02:05:23;;;;;;;7.68;3.90;;;;;;;23.88;48.99;97347.22;4974934;28;20035;-58
2021/07/21 02:07:50;;;;;;;6.57;3.70;;;;;;;23.88;48.78;97350.81;4973012;28;20073;-58
2021/07/21 02:10:24;;;;;;;7.22;3.65;;;;;;;23.98;48.86;97339.44;4973219;28;20027;-58
2021/07/21 02:12:57;;;;;;;9.13;4.00;;;;;;;23.98;49.18;97344.94;4955285;28;21593;-59
2021/07/21 02:15:24;;;;;;;7.22;3.65;;;;;;;24.00;47.93;97339.25;4973352;28;20026;-58
2021/07/21 02:17:50;;;;;;;7.50;3.80;;;;;;;23.99;48.09;97340.28;4973284;28;20109;-58
2021/07/21 02:20:15;;;;;;;7.32;3.97;;;;;;;24.04;47.87;97349.59;4973498;28;20031;-58
2021/07/21 02:22:42;;;;;;;6.07;3.83;;;;;;;24.15;47.95;97352.78;4974005;28;20031;-57
2021/07/21 02:25:09;;;;;;;7.70;3.65;;;;;;;24.06;48.38;97346.63;4972721;28;20046;-57
2021/07/21 02:27:34;;;;;;;6.95;4.10;;;;;;;24.05;47.98;97353.19;4974290;28;20039;-57
2021/07/21 02:30:01;;;;;;;7.68;3.90;;;;;;;23.99;48.12;97349.38;4973138;28;20089;-57
2021/07/21 02:32:31;;;;;;;6.85;4.15;;;;;;;23.96;48.15;97349.78;4973296;28;20120;-57
2021/07/21 02:34:58;;;;;;;8.80;4.00;;;;;;;23.94;48.03;97351.91;4974328;28;20041;-58
2021/07/21 02:37:24;;;;;;;7.78;3.90;;;;;;;23.87;47.89;97356.50;4970891;28;20035;-59
2021/07/21 02:39:51;;;;;;;6.60;3.90;;;;;;;23.76;48.31;97352.47;4970969;28;20073;-57
2021/07/21 02:42:17;;;;;;;5.85;3.60;;;;;;;23.71;48.43;97353.06;4973243;28;20038;-59
2021/07/21 02:44:43;;;;;;;8.77;4.00;;;;;;;23.69;48.13;97349.72;4971293;28;20085;-58
2021/07/21 02:47:09;;;;;;;6.65;3.80;;;;;;;23.80;48.11;97352.88;4973598;28;20108;-58
2021/07/21 02:49:34;;;;;;;8.65;4.32;;;;;;;23.76;47.97;97354.34;4972292;28;20039;-56
2021/07/21 02:52:11;;;;;;;7.15;4.30;;;;;;;23.56;48.93;97361.50;4973909;28;20479;-57
2021/07/21 02:54:43;;;;;;;6.32;4.05;;;;;;;23.29;49.95;97363.28;4974081;28;20023;-58
2021/07/21 02:57:29;;;;;;;7.13;3.85;;;;;;;23.19;51.07;97352.69;4972860;28;20049;-58
2021/07/21 02:59:56;;;;;;;9.38;4.43;;;;;;;23.43;50.82;97361.44;4972001;28;20042;-58
2021/07/21 03:02:23;;;;;;;10.10;5.13;;;;;;;23.52;51.12;97359.38;4972675;28;20483;-57
2021/07/21 03:04:51;;;;;;;12.43;4.97;;;;;;;23.50;51.36;97359.56;4972178;28;20030;-58
2021/07/21 03:07:18;;;;;;;9.85;4.90;;;;;;;23.58;51.57;97358.53;4972735;28;20170;-58
2021/07/21 03:09:44;;;;;;;11.75;5.25;;;;;;;23.44;52.25;97359.53;4973560;28;20027;-57
2021/07/21 03:12:12;;;;;;;11.73;5.15;;;;;;;23.45;52.58;97359.34;4972386;28;20030;-57
2021/07/21 03:14:39;;;;;;;10.88;5.00;;;;;;;23.50;52.57;97362.31;4972726;28;20074;-58
2021/07/21 03:17:05;;;;;;;11.77;5.18;;;;;;;23.39;53.01;97363.75;4971723;28;20045;-58
2021/07/21 03:19:31;;;;;;;9.15;5.22;;;;;;;23.28;53.60;97369.81;4971959;28;20110;-57
2021/07/21 03:21:57;;;;;;;10.93;5.70;;;;;;;23.38;53.70;97359.31;4971651;28;20030;-58
2021/07/21 03:24:24;;;;;;;11.57;5.78;;;;;;;23.53;53.51;97366.53;4973600;28;20055;-58
2021/07/21 03:26:50;;;;;;;11.60;5.60;;;;;;;23.48;53.56;97366.34;4973326;28;20066;-58
2021/07/21 03:29:18;;;;;;;12.48;5.88;;;;;;;23.26;54.67;97371.06;4974608;28;20034;-58
2021/07/21 03:31:44;;;;;;;10.80;5.78;;;;;;;23.28;54.84;97369.81;4980793;28;20033;-59
2021/07/21 03:34:13;;;;;;;9.93;6.13;;;;;;;23.31;54.84;97372.16;4972127;28;20035;-58
2021/07/21 03:36:42;;;;;;;17.27;6.50;;;;;;;23.21;55.65;97379.91;4975772;28;20030;-58
2021/07/21 03:39:10;;;;;;;11.82;7.05;;;;;;;23.04;56.23;97371.16;4975492;28;20034;-58
2021/07/21 03:41:36;;;;;;;14.73;6.60;;;;;;;23.15;56.04;97378.00;4975468;28;20026;-57
2021/07/21 03:44:03;;;;;;;11.55;6.35;;;;;;;23.27;55.27;97379.09;4975767;28;20030;-58
2021/07/21 03:46:29;;;;;;;13.23;7.05;;;;;;;23.28;55.18;97374.47;4973903;28;20023;-58
2021/07/21 03:48:57;;;;;;;16.67;6.28;;;;;;;23.22;55.53;97381.59;4975307;28;20090;-58
2021/07/21 03:51:23;;;;;;;14.10;7.28;;;;;;;23.33;55.03;97388.41;4974583;28;20023;-58
2021/07/21 03:53:50;;;;;;;16.30;6.55;;;;;;;23.38;54.80;97385.91;4975331;28;20368;-58
2021/07/21 03:56:15;;;;;;;12.50;6.53;;;;;;;23.45;54.48;97386.78;4975507;28;20027;-58
2021/07/21 03:58:41;;;;;;;11.48;6.35;;;;;;;23.42;54.31;97384.44;4959275;28;20031;-58
2021/07/21 04:01:07;;;;;;;15.13;6.38;;;;;;;23.42;54.79;97387.19;4975412;28;20022;-58
2021/07/21 04:03:33;;;;;;;12.02;6.18;;;;;;;23.35;55.18;97403.63;4958930;28;20027;-57
2021/07/21 04:05:59;;;;;;;10.93;6.82;;;;;;;23.31;55.10;97401.50;4974863;28;20454;-58
2021/07/21 04:08:25;;;;;;;14.93;6.60;;;;;;;23.08;55.87;97399.88;4975057;28;20535;-58
2021/07/21 04:10:54;;;;;;;11.68;6.10;;;;;;;23.04;55.94;97406.81;4975301;28;20023;-58
2021/07/21 04:13:20;;;;;;;10.57;6.03;;;;;;;22.94;57.23;97420.84;4975338;28;20022;-59
2021/07/21 04:15:46;;;;;;;19.60;6.40;;;;;;;22.74;57.80;97415.22;4974211;28;20026;-57
2021/07/21 04:18:13;;;;;;;13.55;6.43;;;;;;;22.73;57.38;97419.03;4972453;28;20105;-58
2021/07/21 04:20:39;;;;;;;13.48;6.10;;;;;;;22.74;57.17;97429.81;4973251;28;20035;-58
2021/07/21 04:23:05;;;;;;;12.13;6.53;;;;;;;22.71;57.60;97423.88;4975837;28;20035;-58
2021/07/21 04:25:31;;;;;;;12.32;5.88;;;;;;;22.82;57.18;97426.06;4975889;28;20054;-58
2021/07/21 04:27:58;;;;;;;11.60;6.40;;;;;;;22.93;56.53;97435.63;4974755;28;20468;-57
2021/07/21 04:30:23;;;;;;;11.60;6.15;;;;;;;22.98;56.52;97435.03;4975933;28;20036;-59
2021/07/21 04:32:49;;;;;;;11.50;6.13;;;;;;;22.99;55.84;97439.47;4974715;28;20019;-59
2021/07/21 04:35:16;;;;;;;12.13;6.22;;;;;;;23.12;55.32;97441.47;4973967;28;20174;-59
2021/07/21 04:37:42;;;;;;;14.00;5.95;;;;;;;23.29;55.18;97450.22;4974687;28;20029;-58
2021/07/21 04:40:12;;;;;;;14.23;6.35;;;;;;;23.23;55.29;97446.41;4974550;28;20027;-59
2021/07/21 04:42:38;;;;;;;;;;;;;;;23.05;56.04;97446.91;4974952;28;20034;-59
2021/07/21 04:45:05;;;;;;;13.40;6.20;;;;;;;23.17;55.10;97448.06;4975681;28;19914;-59
2021/07/21 04:47:30;;;;;;;12.85;6.18;;;;;;;23.24;55.47;97445.38;4975468;28;20054;-58
2021/07/21 04:49:58;;;;;;;14.43;6.22;;;;;;;23.13;55.51;97449.53;4975087;28;20067;-60
2021/07/21 04:52:25;;;;;;;14.32;6.22;;;;;;;23.10;56.21;97452.63;4967959;28;20085;-59
2021/07/21 04:54:51;;;;;;;14.20;6.78;;;;;;;23.16;55.00;97451.84;4973121;28;20031;-59
2021/07/21 04:57:18;;;;;;;13.10;6.50;;;;;;;22.94;57.14;97450.19;4974378;28;20497;-57
2021/07/21 04:59:43;;;;;;;14.05;6.70;;;;;;;22.86;56.83;97448.44;4973648;28;20438;-59
2021/07/21 05:02:09;;;;;;;16.52;5.95;;;;;;;22.90;56.61;97457.97;4968600;28;20027;-59
2021/07/21 05:04:37;;;;;;;13.25;5.95;;;;;;;22.94;56.61;97456.50;4974102;28;20035;-59
2021/07/21 05:07:03;;;;;;;16.48;6.25;;;;;;;22.99;56.63;97453.19;4974088;28;20031;-59
2021/07/21 05:09:29;;;;;;;11.98;5.97;;;;;;;23.06;55.61;97454.94;4973276;28;20037;-58
2021/07/21 05:11:54;;;;;;;15.25;6.57;;;;;;;23.32;53.96;97463.56;4968236;28;20723;-58
2021/07/21 05:14:20;;;;;;;11.68;5.93;;;;;;;23.34;53.88;97462.31;4964119;28;20023;-59
2021/07/21 05:16:45;;;;;;;12.25;6.15;;;;;;;23.39;53.56;97465.28;4962855;28;20035;-57
2021/07/21 05:19:11;;;;;;;11.55;5.90;;;;;;;23.43;53.54;97467.63;4967062;28;20023;-59
2021/07/21 05:21:37;;;;;;;9.70;5.75;;;;;;;23.45;53.80;97471.00;4967554;28;20468;-59
2021/07/21 05:24:02;;;;;;;28.02;8.88;;;;;;;23.54;53.53;97461.56;4965777;28;20031;-58
2021/07/21 05:26:28;;;;;;;12.85;6.22;;;;;;;23.66;53.30;97473.66;4964513;28;20464;-59
2021/07/21 05:28:53;;;;;;;13.05;6.50;;;;;;;23.64;53.36;97475.78;4972544;28;20046;-59
2021/07/21 05:31:19;;;;;;;12.95;6.28;;;;;;;23.29;56.24;97477.66;4974094;28;20030;-58
2021/07/21 05:33:44;;;;;;;14.57;6.25;;;;;;;23.15;56.64;97474.84;4962666;28;20150;-56
2021/07/21 05:36:10;;;;;;;12.27;5.80;;;;;;;23.26;56.50;97478.09;4974804;28;20031;-59
2021/07/21 05:38:36;;;;;;;10.68;5.68;;;;;;;23.42;54.82;97479.66;4973745;28;20090;-59
2021/07/21 05:41:01;;;;;;;11.13;5.53;;;;;;;23.54;54.17;97486.25;4973231;28;20034;-59
2021/07/21 05:43:29;;;;;;;10.63;6.00;;;;;;;23.63;54.44;97490.53;4974841;28;20031;-59
2021/07/21 05:45:54;;;;;;;18.58;6.38;;;;;;;23.35;56.56;97480.47;4973669;28;20035;-58
2021/07/21 05:48:20;;;;;;;20.30;6.13;;;;;;;23.43;56.72;97490.44;4974118;28;20062;-58
2021/07/21 05:50:45;;;;;;;12.73;5.90;;;;;;;23.55;56.86;97487.97;4967474;28;20042;-59
2021/07/21 05:53:11;;;;;;;16.67;6.40;;;;;;;23.72;55.92;97493.97;4972889;28;20471;-59
2021/07/21 05:55:36;;;;;;;14.52;6.20;;;;;;;23.77;54.90;97487.84;4971437;28;20046;-59
2021/07/21 05:58:02;;;;;;;16.40;6.63;;;;;;;23.89;53.53;97489.00;4968021;28;20407;-58
2021/07/21 06:00:28;;;;;;;12.95;5.80;;;;;;;24.00;52.41;97490.31;4970574;28;20399;-59
2021/07/21 06:02:53;;;;;;;12.40;5.85;;;;;;;24.06;51.98;97490.34;4968826;28;20041;-58
2021/07/21 06:05:19;;;;;;;14.95;5.80;;;;;;;24.09;52.36;97490.97;4968806;28;20058;-59
2021/07/21 06:07:44;;;;;;;12.25;5.97;;;;;;;24.14;51.98;97493.94;4970290;28;20042;-58
2021/07/21 06:10:10;;;;;;;10.80;5.68;;;;;;;24.11;51.91;97497.97;4972658;28;20041;-58
2021/07/21 06:12:35;;;;;;;11.85;5.55;;;;;;;24.17;52.13;97499.88;4974224;28;20030;-59
2021/07/21 06:15:03;;;;;;;12.07;5.97;;;;;;;24.25;52.22;97498.84;4973711;28;20027;-58
2021/07/21 06:17:30;;;;;;;12.23;5.30;;;;;;;24.33;52.90;97500.56;4973151;28;20027;-58
2021/07/21 06:19:55;;;;;;;13.93;6.05;;;;;;;24.34;54.36;97503.09;4971791;28;20034;-58
2021/07/21 06:22:20;;;;;;;13.55;6.28;;;;;;;24.40;54.08;97509.69;4972662;28;20463;-58
2021/07/21 06:24:46;;;;;;;10.85;6.05;;;;;;;24.35;53.51;97507.53;4965214;28;20070;-57
2021/07/21 06:27:12;;;;;;;11.10;6.03;;;;;;;24.28;53.26;97511.31;4976149;28;20502;-59
2021/07/21 06:29:38;;;;;;;11.05;5.50;;;;;;;24.31;51.46;97516.41;4973695;28;20078;-58
2021/07/21 06:32:04;;;;;;;10.57;5.60;;;;;;;24.56;51.04;97512.03;4971388;28;20034;-58
2021/07/21 06:34:29;;;;;;;10.00;5.18;;;;;;;24.70;50.88;97523.06;4956329;28;20501;-58
2021/07/21 06:36:55;;;;;;;12.27;6.30;;;;;;;24.81;54.76;97518.84;4972273;28;20479;-57
2021/07/21 06:39:20;;;;;;;13.70;6.35;;;;;;;24.75;55.77;97517.81;4973570;28;20102;-59
2021/07/21 06:41:46;;;;;;;14.98;6.90;;;;;;;24.70;56.06;97534.91;4972161;28;20046;-57
2021/07/21 06:44:11;;;;;;;13.38;7.22;;;;;;;24.64;57.12;97524.78;4962095;28;20034;-57
2021/07/21 06:46:36;;;;;;;11.07;7.10;;;;;;;24.93;55.93;97532.84;4971776;28;20420;-58
2021/07/21 06:49:02;;;;;;;12.40;6.63;;;;;;;25.11;54.82;97535.81;4969959;28;20087;-57
2021/07/21 06:51:28;;;;;;;9.32;6.40;;;;;;;25.26;53.41;97534.75;4971453;28;20035;-57
2021/07/21 06:53:53;;;;;;;12.02;6.90;;;;;;;24.96;55.38;97544.28;4970495;28;20039;-59
2021/07/21 06:56:19;;;;;;;12.48;6.22;;;;;;;25.08;54.80;97547.25;4971656;28;20050;-58
2021/07/21 06:58:44;;;;;;;12.07;6.85;;;;;;;24.85;55.19;97547.63;4972756;28;20034;-57
2021/07/21 07:01:10;;;;;;;15.20;6.55;;;;;;;24.70;54.83;97550.56;4972338;28;20034;-58
2021/07/21 07:03:35;;;;;;;13.02;6.50;;;;;;;24.84;54.26;97554.19;4972053;28;20058;-58
2021/07/21 07:06:01;;;;;;;11.55;6.43;;;;;;;25.08;54.44;97552.75;4971323;28;20092;-58
2021/07/21 07:08:27;;;;;;;12.50;7.00;;;;;;;25.17;53.58;97553.38;4972416;28;20058;-58
2021/07/21 07:10:53;;;;;;;13.30;7.22;;;;;;;25.22;53.17;97556.34;4975765;28;20027;-58
2021/07/21 07:13:18;;;;;;;15.50;6.65;;;;;;;24.92;53.42;97556.75;4976859;28;20383;-58
2021/07/21 07:15:44;;;;;;;11.77;6.18;;;;;;;25.18;52.43;97561.41;4971542;28;20034;-58
2021/07/21 07:18:14;;;;;;;15.27;6.88;;;;;;;25.18;52.20;97568.81;4969091;28;20035;-61
2021/07/21 07:20:41;;;;;;;15.52;6.97;;;;;;;25.41;53.01;97560.16;4969991;28;20483;-59
2021/07/21 07:23:06;;;;;;;10.32;6.30;;;;;;;25.43;52.62;97560.81;4970889;28;20055;-58
2021/07/21 07:25:32;;;;;;;11.98;6.65;;;;;;;25.43;52.04;97562.69;4968836;28;20190;-58
2021/07/21 07:27:57;;;;;;;12.73;6.72;;;;;;;25.49;51.50;97565.44;4967005;28;20391;-58
2021/07/21 07:30:24;;;;;;;12.00;6.70;;;;;;;25.58;51.59;97563.31;4970952;28;20106;-58
2021/07/21 07:32:49;;;;;;;12.50;7.18;;;;;;;25.38;51.58;97563.34;4971829;28;20035;-58
2021/07/21 07:35:15;;;;;;;12.07;6.45;;;;;;;25.42;50.76;97569.28;4971375;28;20038;-58
2021/07/21 07:37:41;;;;;;;10.57;6.25;;;;;;;25.59;50.49;97569.66;4970907;28;20023;-58
2021/07/21 07:40:07;;;;;;;11.88;6.65;;;;;;;25.78;50.38;97567.94;4966736;28;20060;-55
2021/07/21 07:42:32;;;;;;;10.88;6.32;;;;;;;25.86;50.39;97567.72;4967750;28;20121;-58
2021/07/21 07:44:57;;;;;;;14.25;6.85;;;;;;;25.98;49.61;97565.13;4966377;28;20415;-56
2021/07/21 07:47:23;;;;;;;13.23;6.38;;;;;;;25.75;50.96;97571.97;4968441;28;20128;-57
2021/07/21 07:49:48;;;;;;;11.82;6.40;;;;;;;25.77;51.19;97564.31;4966623;28;20368;-58
2021/07/21 07:52:14;;;;;;;20.05;6.60;;;;;;;25.99;51.20;97567.66;4970283;28;20483;-57
2021/07/21 07:54:39;;;;;;;13.15;6.57;;;;;;;26.25;48.98;97573.34;4974199;28;20035;-56
2021/07/21 07:57:05;;;;;;;17.02;6.70;;;;;;;26.27;49.52;97565.69;4972050;28;20046;-56
2021/07/21 07:59:30;;;;;;;14.30;6.43;;;;;;;26.17;49.69;97566.16;4969144;28;20109;-57
2021/07/21 08:01:58;;;;;;;15.45;7.40;;;;;;;25.95;49.46;97554.53;4968749;28;20027;-56
2021/07/21 08:04:23;;;;;;;15.20;7.22;;;;;;;25.88;49.78;97563.69;4969631;28;20077;-57
2021/07/21 08:06:49;;;;;;;14.35;7.53;;;;;;;25.77;49.47;97560.75;4966626;28;20027;-56
2021/07/21 08:09:14;;;;;;;13.25;6.97;;;;;;;25.63;50.26;97559.91;4968029;28;20495;-56
2021/07/21 08:11:45;;;;;;;11.02;6.88;;;;;;;25.79;50.03;97559.47;4969338;28;20041;-56
2021/07/21 08:14:15;;;;;;;17.33;7.75;;;;;;;25.83;49.94;97563.47;4966174;28;20031;-56
2021/07/21 08:16:41;;;;;;;18.45;7.32;;;;;;;26.04;50.07;97556.00;4965778;28;20039;-56
2021/07/21 08:19:07;;;;;;;16.27;6.70;;;;;;;26.33;50.10;97559.31;4968193;28;20054;-56
2021/07/21 08:21:33;;;;;;;13.85;6.65;;;;;;;26.55;48.39;97557.03;4951358;28;20054;-56
2021/07/21 08:23:59;;;;;;;13.20;7.40;;;;;;;26.28;48.17;97561.88;4972080;28;20026;-54
2021/07/21 08:26:24;;;;;;;15.23;7.57;;;;;;;25.88;48.89;97554.56;4971062;28;20031;-56
2021/07/21 08:28:50;;;;;;;13.77;6.70;;;;;;;26.24;48.60;97555.94;4964439;28;20038;-56
2021/07/21 08:31:16;;;;;;;14.48;7.18;;;;;;;26.61;48.06;97560.84;4970658;28;20031;-56
2021/07/21 08:33:43;;;;;;;15.48;7.40;;;;;;;26.88;47.57;97550.50;4972518;28;20085;-56
2021/07/21 08:36:08;;;;;;;13.82;7.07;;;;;;;26.84;48.41;97563.06;4968095;28;20110;-49
2021/07/21 08:38:34;;;;;;;17.80;7.70;;;;;;;26.32;49.70;97560.34;4972846;28;20110;-56
2021/07/21 08:41:01;;;;;;;17.33;7.32;;;;;;;26.14;50.25;97559.16;4972854;28;20098;-54
2021/07/21 08:43:27;;;;;;;12.95;7.60;;;;;;;26.28;49.04;97550.84;4952702;28;20035;-57
2021/07/21 08:45:53;;;;;;;13.00;7.72;;;;;;;26.33;48.93;97562.06;4956308;28;20081;-55
2021/07/21 08:48:18;;;;;;;18.02;8.40;;;;;;;26.05;49.08;97555.78;4973480;28;20030;-55
2021/07/21 08:50:45;;;;;;;14.18;7.55;;;;;;;26.20;49.15;97552.78;4969079;28;20494;-55
2021/07/21 08:53:11;;;;;;;12.93;7.75;;;;;;;26.43;49.01;97556.06;4968615;28;20023;-56
2021/07/21 08:55:36;;;;;;;16.33;7.80;;;;;;;26.43;48.27;97559.69;4968356;28;20081;-55
2021/07/21 08:58:02;;;;;;;15.32;7.50;;;;;;;26.48;48.93;97559.00;4967748;28;21169;-56
2021/07/21 09:00:27;;;;;;;16.05;7.53;;;;;;;26.54;48.88;97558.97;4969812;28;20041;-55
2021/07/21 09:02:53;;;;;;;12.45;7.18;;;;;;;26.64;48.40;97563.16;4972548;28;20073;-57
2021/07/21 09:05:19;;;;;;;13.50;7.10;;;;;;;26.76;48.19;97555.06;4972945;28;20133;-57
2021/07/21 09:07:45;;;;;;;14.63;7.32;;;;;;;26.96;47.62;97560.44;4971018;28;20035;-58
2021/07/21 09:10:16;;;;;;;16.70;7.38;;;;;;;26.88;47.38;97562.41;4957613;28;20034;-57
2021/07/21 09:12:44;;;;;;;20.08;7.53;;;;;;;27.03;47.74;97562.09;4974583;28;20034;-57
2021/07/21 09:15:14;;;;;;;11.77;7.25;;;;;;;26.80;47.38;97564.59;4973366;28;20092;-56
2021/07/21 09:17:58;;;;;;;17.45;7.32;;;;;;;27.01;47.17;97558.69;4972972;28;20030;-56
2021/07/21 09:20:23;;;;;;;12.90;7.05;;;;;;;27.10;47.97;97548.25;4972622;28;20041;-58
2021/07/21 09:22:53;;;;;;;13.35;6.97;;;;;;;26.92;48.07;97548.16;4967639;28;20035;-57
2021/07/21 09:25:23;;;;;;;15.03;6.70;;;;;;;27.20;46.59;97553.25;4966528;28;20529;-57
2021/07/21 09:27:54;;;;;;;14.95;7.30;;;;;;;27.40;45.64;97553.94;4971155;28;20042;-55
2021/07/21 09:30:35;;;;;;;13.48;7.20;;;;;;;27.30;46.07;97553.59;4970864;28;20106;-58
2021/07/21 09:33:12;;;;;;;14.38;6.82;;;;;;;27.60;45.67;97560.38;4972596;28;20073;-57
2021/07/21 09:35:44;;;;;;;16.52;7.53;;;;;;;27.63;45.02;97557.97;4971896;28;20453;-58
2021/07/21 09:38:10;;;;;;;14.80;6.78;;;;;;;27.60;45.75;97555.66;4990120;28;20033;-58
2021/07/21 09:40:38;;;;;;;13.52;6.97;;;;;;;27.60;45.94;97560.38;4971837;28;20038;-56
2021/07/21 09:43:10;;;;;;;16.17;7.13;;;;;;;27.96;45.74;97547.66;4973224;28;20041;-57
2021/07/21 09:45:37;;;;;;;14.65;7.47;;;;;;;27.76;45.12;97547.88;4970412;28;20105;-59
2021/07/21 09:48:02;;;;;;;14.35;6.70;;;;;;;27.94;45.21;97558.06;4982309;28;20119;-57
2021/07/21 09:50:30;;;;;;;13.85;6.90;;;;;;;28.04;45.90;97555.66;4968196;28;20026;-57
2021/07/21 09:53:06;;;;;;;14.20;7.57;;;;;;;27.95;45.02;97552.31;4966887;28;20034;-57
2021/07/21 09:55:34;;;;;;;17.10;7.50;;;;;;;27.73;46.07;97546.41;4971590;28;20031;-57
2021/07/21 09:58:13;;;;;;;16.05;7.72;;;;;;;27.84;45.40;97555.84;4970437;28;20110;-58
2021/07/21 10:00:40;;;;;;;19.55;8.45;;;;;;;27.93;45.46;97554.47;4963779;28;20031;-58
2021/07/21 10:03:15;;;;;;;14.63;7.57;;;;;;;28.14;45.64;97552.34;4964185;28;20034;-57
2021/07/21 10:05:55;;;;;;;15.35;8.20;;;;;;;28.16;44.50;97551.03;4967625;28;20026;-57
2021/07/21 10:08:26;;;;;;;18.15;8.52;;;;;;;28.18;44.62;97548.03;4967193;28;20502;-57
2021/07/21 10:10:51;;;;;;;14.77;8.18;;;;;;;28.15;44.85;97556.81;4963948;28;20023;-56
2021/07/21 10:13:17;;;;;;;13.80;8.00;;;;;;;28.26;44.32;97550.50;4965072;28;20045;-57
2021/07/21 10:15:45;;;;;;;16.98;8.63;;;;;;;27.64;45.02;97543.09;4965199;28;20062;-57
2021/07/21 10:18:17;;;;;;;19.10;7.95;;;;;;;27.81;45.65;97545.28;4962976;28;20114;-57
2021/07/21 10:20:45;;;;;;;15.02;8.25;;;;;;;27.99;44.68;97538.88;4950125;28;20023;-57
2021/07/21 10:23:13;;;;;;;15.55;8.10;;;;;;;28.23;44.47;97549.06;4967408;28;20034;-58
2021/07/21 10:25:39;;;;;;;25.38;10.15;;;;;;;28.36;44.53;97548.03;4964342;28;20043;-58
2021/07/21 10:28:05;;;;;;;11.95;7.93;;;;;;;27.89;44.84;97543.03;4969535;28;20116;-57
2021/07/21 10:30:33;;;;;;;18.83;7.82;;;;;;;27.97;46.18;97544.66;4963060;28;20038;-58
2021/07/21 10:32:59;;;;;;;14.43;7.65;;;;;;;27.97;45.48;97546.59;4965117;28;20027;-55
2021/07/21 10:35:26;;;;;;;15.45;8.27;;;;;;;28.31;44.59;97549.81;4967433;28;20058;-57
2021/07/21 10:37:52;;;;;;;16.63;8.15;;;;;;;28.64;44.52;97546.59;4971577;28;20051;-57
2021/07/21 10:40:21;;;;;;;16.90;7.78;;;;;;;28.77;44.06;97541.94;4966642;28;20058;-57
2021/07/21 10:42:51;;;;;;;16.90;8.48;;;;;;;28.81;43.30;97548.69;4970046;28;20027;-56
2021/07/21 10:45:31;;;;;;;16.63;7.72;;;;;;;28.58;43.78;97544.75;4976320;28;20034;-57
2021/07/21 10:48:08;;;;;;;15.63;7.88;;;;;;;28.81;43.76;97546.78;4976281;28;20053;-57
2021/07/21 10:59:12;;;;;;;14.77;8.40;;;;;;;28.35;43.21;97537.19;4974857;28;20085;-57
2021/07/21 11:01:47;;;;;;;15.52;7.50;;;;;;;28.29;44.10;97533.44;4974862;28;20102;-59
2021/07/21 11:04:13;;;;;;;14.65;7.72;;;;;;;28.61;43.60;97537.91;4973295;28;20107;-58
2021/07/21 11:06:42;;;;;;;16.05;8.48;;;;;;;28.37;43.63;97533.13;4973186;28;20031;-58
2021/07/21 11:09:43;;;;;;;16.20;8.35;;;;;;;28.17;44.49;97538.91;4972586;28;20046;-58
2021/07/21 11:12:08;;;;;;;15.32;7.88;;;;;;;28.23;45.26;97531.59;4935140;28;20066;-58
2021/07/21 11:14:34;;;;;;;16.48;8.27;;;;;;;28.66;43.45;97535.31;4972908;28;20069;-59
2021/07/21 11:17:08;;;;;;;16.15;8.20;;;;;;;28.92;43.08;97533.25;4975230;28;21303;-58
2021/07/21 11:19:42;;;;;;;12.05;7.22;;;;;;;28.98;42.38;97532.25;4971595;28;20034;-59
2021/07/21 11:22:24;;;;;;;14.43;7.00;;;;;;;29.13;43.45;97524.38;4971453;28;20026;-59
2021/07/21 11:25:17;;;;;;;13.90;7.40;;;;;;;29.20;41.80;97522.31;4971598;28;20054;-58
2021/07/21 11:28:02;;;;;;;14.23;7.60;;;;;;;28.96;42.58;97518.66;4969997;28;20042;-58
2021/07/21 11:30:58;;;;;;;18.17;7.65;;;;;;;29.21;41.94;97526.78;4974993;28;20073;-59
2021/07/21 11:33:49;;;;;;;17.33;7.93;;;;;;;29.38;41.91;97515.00;4965001;28;20047;-58
2021/07/21 11:36:40;;;;;;;14.88;7.53;;;;;;;28.68;42.50;97508.25;4973237;28;20419;-59
2021/07/21 11:39:09;;;;;;;14.95;7.70;;;;;;;28.84;42.95;97504.78;4973425;28;20038;-58
2021/07/21 11:41:44;;;;;;;15.15;8.27;;;;;;;28.76;43.44;97510.69;4974240;28;20026;-58